AVA8466 SKRG-SKPS
Flight info
| Callsign | AVA8466 |
|---|---|
| Flight time | 0h 52m |
| Altitude | 35000 |
| Route | RNG2B RNG UP778 CLO/N0410F240 G675 MER |
| Aircraft | A320/M-SDE3FGHIRWY/LB1 |
Departure
| Time | 2026-05-05 17:48 |
|---|---|
| Airport | Jose Maria Córdova International Airport (SKRG) |
Arrival
| Time | 2026-05-05 18:40 |
|---|---|
| Airport | Antonio Nariño Airport (SKPS) |
| Time | Latitude | Longitude | Altitude | Speed | Heading |
|---|---|---|---|---|---|
| 2026-05-05 17:20 | 6.16928 | -75.42952 | 7020 ft | 0 kts | 345° |
| 2026-05-05 17:37 | 6.16922 | -75.42951 | 7022 ft | 4 kts | 348° |
| 2026-05-05 17:37 | 6.16889 | -75.42954 | 7022 ft | 4 kts | 37° |
| 2026-05-05 17:37 | 6.16871 | -75.42974 | 7018 ft | 4 kts | 64° |
| 2026-05-05 17:38 | 6.16862 | -75.42999 | 7019 ft | 4 kts | 75° |
| 2026-05-05 17:38 | 6.16859 | -75.43009 | 7018 ft | 0 kts | 76° |
| 2026-05-05 17:40 | 6.16860 | -75.43006 | 7018 ft | 2 kts | 76° |
| 2026-05-05 17:41 | 6.16865 | -75.42987 | 7018 ft | 6 kts | 76° |
| 2026-05-05 17:41 | 6.16887 | -75.42898 | 7019 ft | 14 kts | 76° |
| 2026-05-05 17:41 | 6.16913 | -75.42797 | 7020 ft | 16 kts | 73° |
| 2026-05-05 17:41 | 6.16969 | -75.42701 | 7018 ft | 17 kts | 44° |
| 2026-05-05 17:42 | 6.17020 | -75.42663 | 7018 ft | 12 kts | 37° |
| 2026-05-05 17:42 | 6.17023 | -75.42583 | 7017 ft | 15 kts | 141° |
| 2026-05-05 17:42 | 6.16924 | -75.42523 | 7016 ft | 18 kts | 149° |
| 2026-05-05 17:42 | 6.16807 | -75.42484 | 7002 ft | 19 kts | 181° |
| 2026-05-05 17:43 | 6.16663 | -75.42482 | 6996 ft | 22 kts | 179° |
| 2026-05-05 17:43 | 6.16497 | -75.42480 | 6985 ft | 26 kts | 179° |
| 2026-05-05 17:43 | 6.16308 | -75.42479 | 6981 ft | 28 kts | 179° |
| 2026-05-05 17:43 | 6.16109 | -75.42477 | 6977 ft | 29 kts | 179° |
| 2026-05-05 17:44 | 6.15913 | -75.42476 | 6975 ft | 28 kts | 180° |
| 2026-05-05 17:44 | 6.15723 | -75.42475 | 6975 ft | 27 kts | 179° |
| 2026-05-05 17:44 | 6.15539 | -75.42474 | 6976 ft | 26 kts | 180° |
| 2026-05-05 17:44 | 6.15366 | -75.42472 | 6977 ft | 24 kts | 180° |
| 2026-05-05 17:45 | 6.15197 | -75.42472 | 6977 ft | 24 kts | 180° |
| 2026-05-05 17:45 | 6.15032 | -75.42472 | 6978 ft | 23 kts | 180° |
| 2026-05-05 17:45 | 6.14921 | -75.42471 | 6977 ft | 11 kts | 178° |
| 2026-05-05 17:45 | 6.14886 | -75.42407 | 6976 ft | 13 kts | 89° |
| 2026-05-05 17:46 | 6.14919 | -75.42325 | 6976 ft | 13 kts | 36° |
| 2026-05-05 17:46 | 6.14992 | -75.42299 | 6978 ft | 1 kts | 359° |
| 2026-05-05 17:47 | 6.15090 | -75.42300 | 6980 ft | 43 kts | 360° |
| 2026-05-05 17:47 | 6.15642 | -75.42303 | 6981 ft | 113 kts | 360° |
| 2026-05-05 17:47 | 6.16625 | -75.42312 | 6992 ft | 167 kts | 359° |
| 2026-05-05 17:47 | 6.17890 | -75.42316 | 7372 ft | 186 kts | 0° |
| 2026-05-05 17:48 | 6.19184 | -75.42324 | 8242 ft | 185 kts | 1° |
| 2026-05-05 17:48 | 6.20518 | -75.42328 | 8629 ft | 201 kts | 6° |
| 2026-05-05 17:48 | 6.21878 | -75.41913 | 8899 ft | 210 kts | 40° |
| 2026-05-05 17:48 | 6.22760 | -75.40771 | 9312 ft | 209 kts | 75° |
| 2026-05-05 17:49 | 6.22827 | -75.39338 | 9793 ft | 208 kts | 109° |
| 2026-05-05 17:49 | 6.22120 | -75.38118 | 10318 ft | 206 kts | 129° |
| 2026-05-05 17:49 | 6.21238 | -75.36991 | 10878 ft | 204 kts | 129° |
| 2026-05-05 17:49 | 6.20365 | -75.35859 | 11390 ft | 205 kts | 128° |
| 2026-05-05 17:50 | 6.19480 | -75.34725 | 11894 ft | 207 kts | 129° |
| 2026-05-05 17:50 | 6.18337 | -75.33774 | 12084 ft | 226 kts | 156° |
| 2026-05-05 17:50 | 6.16701 | -75.33599 | 12264 ft | 255 kts | 191° |
| 2026-05-05 17:50 | 6.14951 | -75.34240 | 12511 ft | 281 kts | 199° |
| 2026-05-05 17:51 | 6.13079 | -75.35055 | 12736 ft | 305 kts | 201° |
| 2026-05-05 17:51 | 6.11070 | -75.35965 | 12935 ft | 328 kts | 202° |
| 2026-05-05 17:51 | 6.08920 | -75.36945 | 13146 ft | 348 kts | 201° |
| 2026-05-05 17:51 | 6.06684 | -75.37962 | 13667 ft | 356 kts | 201° |
| 2026-05-05 17:52 | 6.04407 | -75.38992 | 14256 ft | 361 kts | 201° |
| 2026-05-05 17:52 | 6.02096 | -75.40034 | 14788 ft | 366 kts | 201° |
| 2026-05-05 17:52 | 5.99753 | -75.41083 | 15319 ft | 371 kts | 201° |
| 2026-05-05 17:52 | 5.97410 | -75.42118 | 15830 ft | 375 kts | 200° |
| 2026-05-05 17:53 | 5.94977 | -75.43113 | 16376 ft | 379 kts | 199° |
| 2026-05-05 17:53 | 5.92495 | -75.44062 | 16917 ft | 383 kts | 198° |
| 2026-05-05 17:53 | 5.89983 | -75.44996 | 17424 ft | 387 kts | 198° |
| 2026-05-05 17:53 | 5.87446 | -75.45936 | 17928 ft | 391 kts | 198° |
| 2026-05-05 17:54 | 5.84883 | -75.46890 | 18422 ft | 394 kts | 198° |
| 2026-05-05 17:54 | 5.82304 | -75.47867 | 18806 ft | 399 kts | 198° |
| 2026-05-05 17:54 | 5.79700 | -75.48866 | 19252 ft | 402 kts | 199° |
| 2026-05-05 17:54 | 5.77080 | -75.49877 | 19690 ft | 405 kts | 199° |
| 2026-05-05 17:55 | 5.74439 | -75.50897 | 20150 ft | 408 kts | 199° |
| 2026-05-05 17:55 | 5.71778 | -75.51926 | 20573 ft | 411 kts | 199° |
| 2026-05-05 17:55 | 5.69096 | -75.52961 | 21028 ft | 414 kts | 199° |
| 2026-05-05 17:55 | 5.66393 | -75.54003 | 21455 ft | 418 kts | 199° |
| 2026-05-05 17:56 | 5.63665 | -75.55053 | 21880 ft | 421 kts | 199° |
| 2026-05-05 17:56 | 5.60921 | -75.56106 | 22329 ft | 423 kts | 199° |
| 2026-05-05 17:56 | 5.58159 | -75.57164 | 22753 ft | 426 kts | 199° |
| 2026-05-05 17:56 | 5.55373 | -75.58232 | 23129 ft | 430 kts | 199° |
| 2026-05-05 17:57 | 5.52602 | -75.59296 | 23565 ft | 433 kts | 200° |
| 2026-05-05 17:57 | 5.49788 | -75.60378 | 23967 ft | 434 kts | 200° |
| 2026-05-05 17:57 | 5.46960 | -75.61466 | 24340 ft | 436 kts | 200° |
| 2026-05-05 17:57 | 5.44124 | -75.62554 | 24725 ft | 438 kts | 200° |
| 2026-05-05 17:58 | 5.41272 | -75.63649 | 25077 ft | 440 kts | 200° |
| 2026-05-05 17:58 | 5.38407 | -75.64749 | 25421 ft | 442 kts | 200° |
| 2026-05-05 17:58 | 5.35532 | -75.65852 | 25779 ft | 444 kts | 200° |
| 2026-05-05 17:58 | 5.32637 | -75.66962 | 26116 ft | 446 kts | 200° |
| 2026-05-05 17:59 | 5.29731 | -75.68077 | 26468 ft | 448 kts | 200° |
| 2026-05-05 17:59 | 5.26809 | -75.69197 | 26810 ft | 450 kts | 200° |
| 2026-05-05 17:59 | 5.23876 | -75.70324 | 27148 ft | 452 kts | 200° |
| 2026-05-05 17:59 | 5.20930 | -75.71456 | 27492 ft | 454 kts | 200° |
| 2026-05-05 18:00 | 5.17968 | -75.72595 | 27822 ft | 457 kts | 200° |
| 2026-05-05 18:00 | 5.14992 | -75.73736 | 28143 ft | 459 kts | 199° |
| 2026-05-05 18:00 | 5.12001 | -75.74882 | 28447 ft | 462 kts | 199° |
| 2026-05-05 18:00 | 5.08990 | -75.76038 | 28746 ft | 464 kts | 199° |
| 2026-05-05 18:01 | 5.06005 | -75.77184 | 29035 ft | 466 kts | 199° |
| 2026-05-05 18:01 | 5.02967 | -75.78349 | 29341 ft | 468 kts | 199° |
| 2026-05-05 18:01 | 4.99918 | -75.79519 | 29642 ft | 470 kts | 199° |
| 2026-05-05 18:01 | 4.96865 | -75.80689 | 29936 ft | 471 kts | 199° |
| 2026-05-05 18:02 | 4.93796 | -75.81865 | 30208 ft | 473 kts | 199° |
| 2026-05-05 18:02 | 4.90716 | -75.83043 | 30459 ft | 475 kts | 199° |
| 2026-05-05 18:02 | 4.87614 | -75.84228 | 30703 ft | 477 kts | 199° |
| 2026-05-05 18:02 | 4.84509 | -75.85416 | 30938 ft | 479 kts | 199° |
| 2026-05-05 18:03 | 4.81393 | -75.86607 | 31166 ft | 480 kts | 199° |
| 2026-05-05 18:03 | 4.78265 | -75.87804 | 31456 ft | 480 kts | 199° |
| 2026-05-05 18:03 | 4.75143 | -75.89003 | 31782 ft | 480 kts | 200° |
| 2026-05-05 18:03 | 4.72027 | -75.90202 | 32091 ft | 479 kts | 200° |
| 2026-05-05 18:04 | 4.68916 | -75.91398 | 32420 ft | 479 kts | 199° |
| 2026-05-05 18:04 | 4.65801 | -75.92592 | 32739 ft | 479 kts | 199° |
| 2026-05-05 18:04 | 4.62687 | -75.93783 | 33010 ft | 478 kts | 199° |
| 2026-05-05 18:04 | 4.59577 | -75.94971 | 33340 ft | 478 kts | 199° |
| 2026-05-05 18:05 | 4.56470 | -75.96158 | 33669 ft | 478 kts | 199° |
| 2026-05-05 18:05 | 4.53366 | -75.97343 | 34013 ft | 477 kts | 199° |
| 2026-05-05 18:05 | 4.50263 | -75.98530 | 34320 ft | 477 kts | 200° |
| 2026-05-05 18:05 | 4.47212 | -75.99701 | 34639 ft | 476 kts | 200° |
| 2026-05-05 18:06 | 4.44122 | -76.00886 | 34944 ft | 475 kts | 200° |
| 2026-05-05 18:06 | 4.42038 | -76.01685 | 35054 ft | 474 kts | 200° |
| 2026-05-05 18:06 | 4.37972 | -76.03242 | 35114 ft | 471 kts | 200° |
| 2026-05-05 18:07 | 4.31849 | -76.05584 | 35102 ft | 470 kts | 200° |
| 2026-05-05 18:07 | 4.25729 | -76.07924 | 35106 ft | 471 kts | 199° |
| 2026-05-05 18:08 | 4.19615 | -76.10258 | 35106 ft | 470 kts | 199° |
| 2026-05-05 18:08 | 4.13497 | -76.12598 | 35123 ft | 469 kts | 200° |
| 2026-05-05 18:09 | 4.07408 | -76.14929 | 35117 ft | 468 kts | 200° |
| 2026-05-05 18:09 | 4.01319 | -76.17253 | 35130 ft | 468 kts | 200° |
| 2026-05-05 18:10 | 3.95280 | -76.19561 | 35148 ft | 467 kts | 200° |
| 2026-05-05 18:10 | 3.89217 | -76.21884 | 35110 ft | 467 kts | 200° |
| 2026-05-05 18:11 | 3.83144 | -76.24205 | 35093 ft | 467 kts | 200° |
| 2026-05-05 18:11 | 3.77069 | -76.26528 | 35091 ft | 467 kts | 200° |
| 2026-05-05 18:12 | 3.70998 | -76.28839 | 35077 ft | 467 kts | 200° |
| 2026-05-05 18:12 | 3.64918 | -76.31156 | 35061 ft | 467 kts | 200° |
| 2026-05-05 18:13 | 3.58883 | -76.33469 | 35056 ft | 467 kts | 200° |
| 2026-05-05 18:13 | 3.52802 | -76.35796 | 35062 ft | 468 kts | 200° |
| 2026-05-05 18:14 | 3.46721 | -76.38111 | 35061 ft | 467 kts | 199° |
| 2026-05-05 18:14 | 3.40639 | -76.40431 | 35059 ft | 467 kts | 200° |
| 2026-05-05 18:15 | 3.34643 | -76.42973 | 35063 ft | 468 kts | 204° |
| 2026-05-05 18:15 | 3.28751 | -76.45787 | 35070 ft | 469 kts | 205° |
| 2026-05-05 18:16 | 3.22908 | -76.48593 | 35069 ft | 469 kts | 204° |
| 2026-05-05 18:16 | 3.16986 | -76.51342 | 35047 ft | 468 kts | 203° |
| 2026-05-05 18:17 | 3.11051 | -76.54052 | 35045 ft | 469 kts | 203° |
| 2026-05-05 18:17 | 3.05112 | -76.56770 | 35045 ft | 469 kts | 203° |
| 2026-05-05 18:18 | 2.99185 | -76.59501 | 35041 ft | 469 kts | 204° |
| 2026-05-05 18:18 | 2.93268 | -76.62244 | 35058 ft | 469 kts | 204° |
| 2026-05-05 18:19 | 2.87348 | -76.64990 | 35047 ft | 468 kts | 204° |
| 2026-05-05 18:19 | 2.81475 | -76.67709 | 34678 ft | 467 kts | 204° |
| 2026-05-05 18:19 | 2.78507 | -76.69080 | 33742 ft | 473 kts | 203° |
| 2026-05-05 18:20 | 2.75494 | -76.70468 | 32648 ft | 480 kts | 203° |
| 2026-05-05 18:20 | 2.72450 | -76.71873 | 31844 ft | 481 kts | 203° |
| 2026-05-05 18:20 | 2.69431 | -76.73267 | 31245 ft | 476 kts | 203° |
| 2026-05-05 18:20 | 2.66429 | -76.74653 | 30583 ft | 474 kts | 203° |
| 2026-05-05 18:21 | 2.63445 | -76.76033 | 29891 ft | 471 kts | 203° |
| 2026-05-05 18:21 | 2.60488 | -76.77401 | 29226 ft | 466 kts | 203° |
| 2026-05-05 18:21 | 2.57559 | -76.78756 | 28584 ft | 461 kts | 203° |
| 2026-05-05 18:21 | 2.54653 | -76.80097 | 27949 ft | 458 kts | 203° |
| 2026-05-05 18:22 | 2.51771 | -76.81428 | 27329 ft | 454 kts | 203° |
| 2026-05-05 18:22 | 2.48912 | -76.82748 | 26714 ft | 451 kts | 203° |
| 2026-05-05 18:22 | 2.46077 | -76.84056 | 26108 ft | 448 kts | 203° |
| 2026-05-05 18:22 | 2.43254 | -76.85354 | 25492 ft | 444 kts | 203° |
| 2026-05-05 18:23 | 2.40476 | -76.86633 | 24773 ft | 445 kts | 203° |
| 2026-05-05 18:23 | 2.37713 | -76.87911 | 24170 ft | 428 kts | 203° |
| 2026-05-05 18:23 | 2.35044 | -76.89152 | 23653 ft | 422 kts | 203° |
| 2026-05-05 18:23 | 2.32390 | -76.90385 | 23092 ft | 418 kts | 203° |
| 2026-05-05 18:24 | 2.29768 | -76.91600 | 22601 ft | 413 kts | 203° |
| 2026-05-05 18:24 | 2.27166 | -76.92803 | 22114 ft | 409 kts | 202° |
| 2026-05-05 18:24 | 2.24595 | -76.93992 | 21620 ft | 405 kts | 203° |
| 2026-05-05 18:24 | 2.22044 | -76.95171 | 21126 ft | 402 kts | 203° |
| 2026-05-05 18:25 | 2.19502 | -76.96346 | 20631 ft | 401 kts | 203° |
| 2026-05-05 18:25 | 2.18683 | -76.96725 | 20466 ft | 401 kts | 203° |
| 2026-05-05 18:25 | 2.14475 | -76.98674 | 19618 ft | 400 kts | 203° |
| 2026-05-05 18:25 | 2.11955 | -76.99838 | 19099 ft | 399 kts | 203° |
| 2026-05-05 18:26 | 2.09431 | -77.01001 | 18571 ft | 399 kts | 203° |
| 2026-05-05 18:26 | 2.06911 | -77.02163 | 17997 ft | 398 kts | 203° |
| 2026-05-05 18:26 | 2.04397 | -77.03325 | 17460 ft | 396 kts | 203° |
| 2026-05-05 18:26 | 2.01903 | -77.04481 | 16940 ft | 393 kts | 203° |
| 2026-05-05 18:27 | 1.99427 | -77.05630 | 16431 ft | 391 kts | 202° |
| 2026-05-05 18:27 | 1.96985 | -77.06760 | 15911 ft | 380 kts | 202° |
| 2026-05-05 18:27 | 1.94626 | -77.07854 | 15433 ft | 372 kts | 202° |
| 2026-05-05 18:27 | 1.92279 | -77.08940 | 14917 ft | 371 kts | 202° |
| 2026-05-05 18:28 | 1.87695 | -77.11070 | 14397 ft | 344 kts | 202° |
| 2026-05-05 18:28 | 1.85598 | -77.12047 | 14273 ft | 322 kts | 201° |
| 2026-05-05 18:28 | 1.83628 | -77.12961 | 14121 ft | 304 kts | 201° |
| 2026-05-05 18:29 | 1.81730 | -77.13836 | 13842 ft | 298 kts | 201° |
| 2026-05-05 18:29 | 1.79853 | -77.14699 | 13599 ft | 295 kts | 201° |
| 2026-05-05 18:29 | 1.78001 | -77.15570 | 13373 ft | 293 kts | 202° |
| 2026-05-05 18:29 | 1.76196 | -77.16499 | 13128 ft | 291 kts | 204° |
| 2026-05-05 18:30 | 1.74420 | -77.17457 | 12870 ft | 289 kts | 205° |
| 2026-05-05 18:30 | 1.72662 | -77.18420 | 12619 ft | 287 kts | 205° |
| 2026-05-05 18:30 | 1.70913 | -77.19376 | 12378 ft | 286 kts | 205° |
| 2026-05-05 18:30 | 1.69165 | -77.20326 | 12133 ft | 285 kts | 205° |
| 2026-05-05 18:31 | 1.67422 | -77.21269 | 11889 ft | 284 kts | 205° |
| 2026-05-05 18:31 | 1.65684 | -77.22206 | 11648 ft | 284 kts | 205° |
| 2026-05-05 18:31 | 1.63953 | -77.23134 | 11388 ft | 280 kts | 205° |
| 2026-05-05 18:31 | 1.62280 | -77.24030 | 11184 ft | 270 kts | 204° |
| 2026-05-05 18:32 | 1.60672 | -77.24893 | 11020 ft | 253 kts | 204° |
| 2026-05-05 18:32 | 1.59161 | -77.25706 | 10859 ft | 242 kts | 204° |
| 2026-05-05 18:32 | 1.57684 | -77.26495 | 10664 ft | 241 kts | 204° |
| 2026-05-05 18:32 | 1.56206 | -77.27283 | 10449 ft | 240 kts | 204° |
| 2026-05-05 18:33 | 1.54740 | -77.28065 | 10229 ft | 238 kts | 204° |
| 2026-05-05 18:33 | 1.53286 | -77.28842 | 10005 ft | 236 kts | 204° |
| 2026-05-05 18:33 | 1.52306 | -77.29362 | 9862 ft | 236 kts | 204° |
| 2026-05-05 18:33 | 1.50870 | -77.30093 | 9633 ft | 233 kts | 202° |
| 2026-05-05 18:34 | 1.49443 | -77.30805 | 9442 ft | 224 kts | 202° |
| 2026-05-05 18:34 | 1.48077 | -77.31484 | 9257 ft | 215 kts | 204° |
| 2026-05-05 18:34 | 1.46749 | -77.32143 | 9059 ft | 212 kts | 204° |
| 2026-05-05 18:34 | 1.45431 | -77.32800 | 8867 ft | 212 kts | 204° |
| 2026-05-05 18:35 | 1.44117 | -77.33455 | 8732 ft | 210 kts | 204° |
| 2026-05-05 18:35 | 1.42825 | -77.34102 | 8648 ft | 200 kts | 204° |
| 2026-05-05 18:35 | 1.41647 | -77.34695 | 8661 ft | 184 kts | 204° |
| 2026-05-05 18:35 | 1.40516 | -77.35261 | 8809 ft | 179 kts | 204° |
| 2026-05-05 18:36 | 1.39407 | -77.35815 | 8814 ft | 177 kts | 204° |
| 2026-05-05 18:36 | 1.38303 | -77.36343 | 8792 ft | 177 kts | 197° |
| 2026-05-05 18:36 | 1.37137 | -77.36541 | 8519 ft | 165 kts | 176° |
| 2026-05-05 18:36 | 1.36055 | -77.36331 | 8264 ft | 154 kts | 158° |
| 2026-05-05 18:37 | 1.35127 | -77.35817 | 8052 ft | 152 kts | 140° |
| 2026-05-05 18:37 | 1.34404 | -77.35045 | 7853 ft | 154 kts | 122° |
| 2026-05-05 18:37 | 1.33967 | -77.34074 | 7607 ft | 151 kts | 103° |
| 2026-05-05 18:37 | 1.33868 | -77.33040 | 7417 ft | 149 kts | 88° |
| 2026-05-05 18:38 | 1.34073 | -77.32026 | 7198 ft | 149 kts | 71° |
| 2026-05-05 18:38 | 1.34575 | -77.31117 | 6951 ft | 150 kts | 50° |
| 2026-05-05 18:38 | 1.35332 | -77.30418 | 6715 ft | 148 kts | 32° |
| 2026-05-05 18:38 | 1.36270 | -77.29985 | 6508 ft | 149 kts | 15° |
| 2026-05-05 18:39 | 1.37269 | -77.29728 | 6308 ft | 147 kts | 14° |
| 2026-05-05 18:39 | 1.38263 | -77.29470 | 6082 ft | 148 kts | 15° |
| 2026-05-05 18:39 | 1.39241 | -77.29207 | 5930 ft | 138 kts | 13° |
| 2026-05-05 18:39 | 1.40012 | -77.29004 | 5891 ft | 71 kts | 14° |
| 2026-05-05 18:40 | 1.40334 | -77.28919 | 5868 ft | 35 kts | 15° |
| 2026-05-05 18:40 | 1.40523 | -77.28868 | 5857 ft | 19 kts | 15° |
| 2026-05-05 18:40 | 1.40614 | -77.28862 | 5853 ft | 10 kts | 8° |
| 2026-05-05 18:40 | 1.40606 | -77.28842 | 5853 ft | 7 kts | 184° |
| 2026-05-05 18:41 | 1.40516 | -77.28868 | 5858 ft | 20 kts | 195° |
| 2026-05-05 18:41 | 1.40348 | -77.28914 | 5874 ft | 29 kts | 195° |
| 2026-05-05 18:41 | 1.40162 | -77.28964 | 5882 ft | 26 kts | 195° |
| 2026-05-05 18:41 | 1.39996 | -77.29008 | 5886 ft | 23 kts | 195° |
| 2026-05-05 18:42 | 1.39847 | -77.29047 | 5894 ft | 21 kts | 195° |
| 2026-05-05 18:42 | 1.39731 | -77.29079 | 5902 ft | 14 kts | 195° |
| 2026-05-05 18:42 | 1.39675 | -77.29072 | 5903 ft | 6 kts | 122° |
| 2026-05-05 18:42 | 1.39665 | -77.29037 | 5904 ft | 4 kts | 105° |
| 2026-05-05 18:43 | 1.39655 | -77.29024 | 5906 ft | 2 kts | 142° |
| 2026-05-05 18:43 | 1.39633 | -77.29024 | 5906 ft | 2 kts | 187° |
| 2026-05-05 18:43 | 1.39614 | -77.29005 | 5907 ft | 7 kts | 103° |
| 2026-05-05 18:43 | 1.39609 | -77.28984 | 5906 ft | 2 kts | 104° |
| 2026-05-05 18:44 | 1.39608 | -77.28982 | 5906 ft | 0 kts | 104° |